createdAt,value
2022-12-11T00:02:50.916Z,73.00
2022-12-11T00:08:22.652Z,73.09
2022-12-11T00:13:54.121Z,72.51
2022-12-11T00:19:25.348Z,72.48
2022-12-11T00:24:56.650Z,72.83
2022-12-11T00:30:28.107Z,72.88
2022-12-11T00:35:59.050Z,72.85
2022-12-11T00:41:30.537Z,72.87
2022-12-11T00:47:01.760Z,72.81
2022-12-11T00:52:32.998Z,73.09
2022-12-11T00:58:04.388Z,73.13
2022-12-11T01:03:37.017Z,72.82
2022-12-11T01:09:26.955Z,72.73
2022-12-11T01:14:58.408Z,72.50
2022-12-11T01:20:29.592Z,72.72
2022-12-11T01:26:11.883Z,72.27
2022-12-11T01:31:42.851Z,72.58
2022-12-11T01:37:13.763Z,72.61
2022-12-11T01:42:44.822Z,72.66
2022-12-11T01:48:24.683Z,72.27
2022-12-11T01:54:01.342Z,72.91
2022-12-11T01:59:36.724Z,72.53
2022-12-11T02:05:09.177Z,72.59
2022-12-11T02:10:54.368Z,72.16
2022-12-11T02:17:09.047Z,72.78
2022-12-11T02:22:40.307Z,72.41
2022-12-11T02:28:18.242Z,72.88
2022-12-11T02:34:09.406Z,72.33
2022-12-11T02:39:42.409Z,72.75
2022-12-11T02:45:14.902Z,72.48
2022-12-11T02:50:48.168Z,72.31
2022-12-11T02:56:22.817Z,72.90
2022-12-11T03:01:53.900Z,72.56
2022-12-11T03:07:28.258Z,72.30
2022-12-11T03:13:00.543Z,72.21
2022-12-11T03:18:44.675Z,72.83
2022-12-11T03:24:24.363Z,72.21
2022-12-11T03:29:58.638Z,72.72
2022-12-11T03:35:39.719Z,72.25
2022-12-11T03:41:12.263Z,72.79
2022-12-11T03:46:43.899Z,72.64
2022-12-11T03:52:16.137Z,72.37
2022-12-11T03:57:47.548Z,72.15
2022-12-11T04:03:18.826Z,72.32
2022-12-11T04:08:49.751Z,72.05
2022-12-11T04:14:39.856Z,71.52
2022-12-11T04:20:30.454Z,72.47
2022-12-11T04:26:13.053Z,72.01
2022-12-11T04:31:46.223Z,71.89
2022-12-11T04:37:17.680Z,72.23
2022-12-11T04:42:48.719Z,72.29
2022-12-11T04:48:19.637Z,71.60
2022-12-11T04:53:50.616Z,72.29
2022-12-11T04:59:22.032Z,71.52
2022-12-11T05:04:53.208Z,71.72
2022-12-11T05:10:24.376Z,71.66
2022-12-11T05:15:56.128Z,72.00
2022-12-11T05:21:33.220Z,72.04
2022-12-11T05:27:06.579Z,71.46
2022-12-11T05:32:38.150Z,71.66
2022-12-11T05:38:09.027Z,71.78
2022-12-11T05:43:40.205Z,71.87
2022-12-11T05:49:11.712Z,71.58
2022-12-11T05:54:42.979Z,71.79
2022-12-11T06:00:14.155Z,71.70
2022-12-11T06:05:45.699Z,72.04
2022-12-11T06:11:22.358Z,71.85
2022-12-11T06:16:55.403Z,71.68
2022-12-11T06:22:26.634Z,71.67
2022-12-11T06:27:57.754Z,71.53
2022-12-11T06:33:29.152Z,71.42
2022-12-11T06:39:00.676Z,71.11
2022-12-11T06:44:31.896Z,71.27
2022-12-11T06:50:03.175Z,71.68
2022-12-11T06:55:37.445Z,71.39
2022-12-11T07:01:20.490Z,71.23
2022-12-11T07:06:52.147Z,71.47
2022-12-11T07:12:23.429Z,71.63
2022-12-11T07:17:54.749Z,71.38
2022-12-11T07:23:28.473Z,71.31
2022-12-11T07:28:59.890Z,71.51
2022-12-11T07:34:31.229Z,71.26
2022-12-11T07:40:02.314Z,71.41
2022-12-11T07:45:33.498Z,70.91
2022-12-11T07:51:15.228Z,71.15
2022-12-11T07:56:53.242Z,70.92
2022-12-11T08:02:25.078Z,71.14
2022-12-11T08:07:56.399Z,70.86
2022-12-11T08:13:27.935Z,71.10
2022-12-11T08:19:00.117Z,71.08
2022-12-11T08:24:31.090Z,71.18
2022-12-11T08:30:02.035Z,70.82
2022-12-11T08:35:33.525Z,71.31
2022-12-11T08:41:22.941Z,71.08
2022-12-11T08:46:54.216Z,70.71
2022-12-11T08:52:25.569Z,70.72
2022-12-11T08:57:56.821Z,70.87
2022-12-11T09:03:27.841Z,70.99
2022-12-11T09:09:01.225Z,70.91
2022-12-11T09:14:32.559Z,70.75
2022-12-11T09:20:04.547Z,70.87
2022-12-11T09:25:40.379Z,70.96
2022-12-11T09:31:16.930Z,70.71
2022-12-11T09:36:48.612Z,70.93
2022-12-11T09:42:46.888Z,70.94
2022-12-11T09:48:22.656Z,71.08
2022-12-11T09:53:56.293Z,70.78
2022-12-11T10:00:05.668Z,70.70
2022-12-11T10:06:04.743Z,70.80
2022-12-11T10:12:23.344Z,70.88
2022-12-11T10:18:01.309Z,70.87
2022-12-11T10:23:46.746Z,71.32
2022-12-11T10:29:17.718Z,70.80
2022-12-11T10:34:53.710Z,70.74
2022-12-11T10:40:26.470Z,70.99
2022-12-11T10:45:58.379Z,70.76
2022-12-11T10:51:32.476Z,70.26
2022-12-11T10:57:05.349Z,70.90
2022-12-11T11:02:40.562Z,70.67
2022-12-11T11:08:20.658Z,70.73
2022-12-11T11:13:52.467Z,70.61
2022-12-11T11:19:31.953Z,70.78
2022-12-11T11:25:05.254Z,70.90
2022-12-11T11:30:38.924Z,70.58
2022-12-11T11:36:22.270Z,71.01
2022-12-11T11:42:05.203Z,70.99
2022-12-11T11:47:53.825Z,71.07
2022-12-11T11:53:31.151Z,70.63
2022-12-11T11:59:22.255Z,71.00
2022-12-11T12:04:53.651Z,70.58
2022-12-11T12:10:30.079Z,70.82
2022-12-11T12:16:02.123Z,70.72
2022-12-11T12:21:39.203Z,71.00
2022-12-11T12:27:58.147Z,70.75
2022-12-11T12:33:48.828Z,70.85
2022-12-11T12:39:44.437Z,70.48
2022-12-11T12:45:15.282Z,71.02
2022-12-11T12:50:49.781Z,70.77
2022-12-11T12:56:21.974Z,70.64
2022-12-11T13:02:02.717Z,70.71
2022-12-11T13:07:34.412Z,70.32
2022-12-11T13:13:07.223Z,70.53
2022-12-11T13:18:39.921Z,70.32
2022-12-11T13:24:20.222Z,70.80
2022-12-11T13:29:51.661Z,70.47
2022-12-11T13:35:24.718Z,70.79
2022-12-11T13:40:57.224Z,70.31
2022-12-11T13:46:31.024Z,70.43
2022-12-11T13:52:02.668Z,70.65
2022-12-11T13:57:33.905Z,70.55
2022-12-11T14:03:07.621Z,70.47
2022-12-11T14:08:40.625Z,70.36
2022-12-11T14:14:42.953Z,70.80
2022-12-11T14:20:23.868Z,70.40
2022-12-11T14:25:56.680Z,70.38
2022-12-11T14:31:41.013Z,70.55
2022-12-11T14:37:14.921Z,70.48
2022-12-11T14:42:55.677Z,70.34
2022-12-11T14:48:37.995Z,70.30
2022-12-11T14:54:20.497Z,70.53
2022-12-11T14:59:53.151Z,70.76
2022-12-11T15:05:24.070Z,70.86
2022-12-11T15:11:01.314Z,70.36
2022-12-11T15:16:34.787Z,70.31
2022-12-11T15:22:09.218Z,70.44
2022-12-11T15:27:40.213Z,70.44
2022-12-11T15:33:11.354Z,70.33
2022-12-11T15:38:43.662Z,70.31
2022-12-11T15:44:20.650Z,70.13
2022-12-11T15:49:55.688Z,70.27
2022-12-11T15:55:34.381Z,70.19
2022-12-11T16:01:05.960Z,70.38
2022-12-11T16:06:37.066Z,69.96
2022-12-11T16:12:08.483Z,70.28
2022-12-11T16:17:40.279Z,70.42
2022-12-11T16:23:13.441Z,70.34
2022-12-11T16:28:44.778Z,70.11
2022-12-11T16:34:15.734Z,69.47
2022-12-11T16:39:47.096Z,69.58
2022-12-11T16:45:23.373Z,69.55
2022-12-11T16:50:55.431Z,68.98
2022-12-11T16:56:27.100Z,69.48
2022-12-11T17:01:58.157Z,69.26
2022-12-11T17:07:32.087Z,69.15
2022-12-11T17:13:03.461Z,69.43
2022-12-11T17:18:34.922Z,69.19
2022-12-11T17:24:07.279Z,69.21
2022-12-11T17:29:38.283Z,69.13
2022-12-11T17:35:10.091Z,69.16
2022-12-11T17:40:44.999Z,69.24
2022-12-11T17:46:16.060Z,69.13
2022-12-11T17:51:48.146Z,68.94
2022-12-11T17:57:19.141Z,68.98
2022-12-11T18:02:50.492Z,68.84
2022-12-11T18:08:26.289Z,68.87
2022-12-11T18:13:57.646Z,68.76
2022-12-11T18:19:28.853Z,68.99
2022-12-11T18:25:02.712Z,68.98
2022-12-11T18:30:36.716Z,68.98
2022-12-11T18:36:09.063Z,68.79
2022-12-11T18:41:40.724Z,68.95
2022-12-11T18:47:12.086Z,69.10
2022-12-11T18:52:43.108Z,69.14
2022-12-11T18:58:17.218Z,68.87
2022-12-11T19:03:49.918Z,68.72
2022-12-11T19:09:21.472Z,68.92
2022-12-11T19:14:52.638Z,68.80
2022-12-11T19:20:48.050Z,68.58
2022-12-11T19:26:20.899Z,68.55
2022-12-11T19:31:52.306Z,68.75
2022-12-11T19:37:23.610Z,68.41
2022-12-11T19:42:54.717Z,68.44
2022-12-11T19:48:25.999Z,68.13
2022-12-11T19:53:57.684Z,68.32
2022-12-11T19:59:28.792Z,68.22
2022-12-11T20:05:00.032Z,68.13
2022-12-11T20:10:31.271Z,68.20
2022-12-11T20:16:06.676Z,68.07
2022-12-11T20:21:38.405Z,68.01
2022-12-11T20:27:10.264Z,67.83
2022-12-11T20:32:41.640Z,68.24
2022-12-11T20:38:12.886Z,68.13
2022-12-11T20:43:45.666Z,68.01
2022-12-11T20:49:16.722Z,68.03
2022-12-11T20:54:47.926Z,68.07
2022-12-11T21:00:19.319Z,67.96
2022-12-11T21:05:50.887Z,68.02
2022-12-11T21:11:22.258Z,67.91
2022-12-11T21:16:54.464Z,68.17
2022-12-11T21:22:26.042Z,67.85
2022-12-11T21:27:57.267Z,67.71
2022-12-11T21:33:28.877Z,67.92
2022-12-11T21:39:01.158Z,68.21
2022-12-11T21:50:23.123Z,68.02
2022-12-11T21:55:54.157Z,68.08
2022-12-11T22:01:30.835Z,68.02
2022-12-11T22:07:02.023Z,68.19
2022-12-11T22:12:33.169Z,67.92
2022-12-11T22:18:04.764Z,67.96
2022-12-11T22:23:38.595Z,68.24
2022-12-11T22:29:09.847Z,68.16
2022-12-11T22:34:41.030Z,67.90
2022-12-11T22:40:12.644Z,67.78
2022-12-11T22:45:43.698Z,67.79
2022-12-11T22:51:14.763Z,68.03
2022-12-11T22:56:45.930Z,68.16
2022-12-11T23:02:17.266Z,68.12
2022-12-11T23:07:48.994Z,67.90
2022-12-11T23:13:20.168Z,67.79
2022-12-11T23:18:52.298Z,67.91
2022-12-11T23:24:23.846Z,67.90
2022-12-11T23:29:55.415Z,67.88
2022-12-11T23:35:26.656Z,67.96
2022-12-11T23:41:00.327Z,67.68
2022-12-11T23:46:31.657Z,68.19
2022-12-11T23:52:03.359Z,67.64
2022-12-11T23:57:35.326Z,67.96
